sensor_id;sensor_type;location;lat;lon;timestamp;temperature;humidity
18450;DHT22;9354;50.194;7.690;2023-12-28T00:00:32;6.70;99.90
18450;DHT22;9354;50.194;7.690;2023-12-28T00:03:00;6.70;99.90
18450;DHT22;9354;50.194;7.690;2023-12-28T00:05:27;6.70;99.90
18450;DHT22;9354;50.194;7.690;2023-12-28T00:07:56;6.70;99.90
18450;DHT22;9354;50.194;7.690;2023-12-28T00:10:24;6.80;99.90
18450;DHT22;9354;50.194;7.690;2023-12-28T00:12:51;6.80;99.90
18450;DHT22;9354;50.194;7.690;2023-12-28T00:15:19;6.90;99.90
18450;DHT22;9354;50.194;7.690;2023-12-28T00:17:46;6.90;99.90
18450;DHT22;9354;50.194;7.690;2023-12-28T00:20:13;7.00;99.90
18450;DHT22;9354;50.194;7.690;2023-12-28T00:22:41;7.00;99.90
18450;DHT22;9354;50.194;7.690;2023-12-28T00:25:10;7.10;99.90
18450;DHT22;9354;50.194;7.690;2023-12-28T00:27:37;7.10;99.90
18450;DHT22;9354;50.194;7.690;2023-12-28T00:30:05;7.10;99.90
18450;DHT22;9354;50.194;7.690;2023-12-28T00:32:33;7.20;99.90
18450;DHT22;9354;50.194;7.690;2023-12-28T00:35:00;7.20;99.90
18450;DHT22;9354;50.194;7.690;2023-12-28T00:37:28;7.30;99.90
18450;DHT22;9354;50.194;7.690;2023-12-28T00:39:55;7.40;99.90
18450;DHT22;9354;50.194;7.690;2023-12-28T00:42:24;7.60;99.90
18450;DHT22;9354;50.194;7.690;2023-12-28T00:44:51;7.70;99.90
18450;DHT22;9354;50.194;7.690;2023-12-28T00:47:19;7.80;99.90
18450;DHT22;9354;50.194;7.690;2023-12-28T00:49:46;7.90;99.90
18450;DHT22;9354;50.194;7.690;2023-12-28T00:52:14;8.00;99.90
18450;DHT22;9354;50.194;7.690;2023-12-28T00:54:41;8.10;99.90
18450;DHT22;9354;50.194;7.690;2023-12-28T00:57:08;8.20;99.90
18450;DHT22;9354;50.194;7.690;2023-12-28T00:59:37;8.30;99.90
18450;DHT22;9354;50.194;7.690;2023-12-28T01:02:05;8.30;99.90
18450;DHT22;9354;50.194;7.690;2023-12-28T01:04:32;8.40;99.90
18450;DHT22;9354;50.194;7.690;2023-12-28T01:06:59;8.40;99.90
18450;DHT22;9354;50.194;7.690;2023-12-28T01:09:28;8.50;99.90
18450;DHT22;9354;50.194;7.690;2023-12-28T01:11:55;8.50;99.90
18450;DHT22;9354;50.194;7.690;2023-12-28T01:14:23;8.50;99.90
18450;DHT22;9354;50.194;7.690;2023-12-28T01:16:50;8.50;99.90
18450;DHT22;9354;50.194;7.690;2023-12-28T01:19:18;8.60;99.90
18450;DHT22;9354;50.194;7.690;2023-12-28T01:21:45;8.60;99.90
18450;DHT22;9354;50.194;7.690;2023-12-28T01:24:13;8.60;99.90
18450;DHT22;9354;50.194;7.690;2023-12-28T01:26:40;8.60;99.90
18450;DHT22;9354;50.194;7.690;2023-12-28T01:29:07;8.60;99.90
18450;DHT22;9354;50.194;7.690;2023-12-28T01:31:35;8.60;99.90
18450;DHT22;9354;50.194;7.690;2023-12-28T01:34:05;8.60;99.90
18450;DHT22;9354;50.194;7.690;2023-12-28T01:36:35;8.60;99.90
18450;DHT22;9354;50.194;7.690;2023-12-28T01:39:02;8.60;99.90
18450;DHT22;9354;50.194;7.690;2023-12-28T01:41:30;8.60;99.90
18450;DHT22;9354;50.194;7.690;2023-12-28T01:43:57;8.60;99.90
18450;DHT22;9354;50.194;7.690;2023-12-28T01:46:25;8.60;99.90
18450;DHT22;9354;50.194;7.690;2023-12-28T01:48:52;8.50;99.90
18450;DHT22;9354;50.194;7.690;2023-12-28T01:51:23;8.50;99.90
18450;DHT22;9354;50.194;7.690;2023-12-28T01:53:52;8.50;99.90
18450;DHT22;9354;50.194;7.690;2023-12-28T01:56:19;8.40;99.90
18450;DHT22;9354;50.194;7.690;2023-12-28T01:58:49;8.30;99.90
18450;DHT22;9354;50.194;7.690;2023-12-28T02:01:18;8.30;99.90
18450;DHT22;9354;50.194;7.690;2023-12-28T02:03:46;8.20;99.90
18450;DHT22;9354;50.194;7.690;2023-12-28T02:06:14;8.20;99.90
18450;DHT22;9354;50.194;7.690;2023-12-28T02:08:44;8.20;99.90
18450;DHT22;9354;50.194;7.690;2023-12-28T02:11:12;8.10;99.90
18450;DHT22;9354;50.194;7.690;2023-12-28T02:13:39;8.20;99.90
18450;DHT22;9354;50.194;7.690;2023-12-28T02:16:12;8.10;99.90
18450;DHT22;9354;50.194;7.690;2023-12-28T02:18:43;8.10;99.90
18450;DHT22;9354;50.194;7.690;2023-12-28T02:21:12;8.10;99.90
18450;DHT22;9354;50.194;7.690;2023-12-28T02:23:47;8.10;99.90
18450;DHT22;9354;50.194;7.690;2023-12-28T02:26:17;8.00;99.90
18450;DHT22;9354;50.194;7.690;2023-12-28T02:28:45;8.00;99.90
18450;DHT22;9354;50.194;7.690;2023-12-28T02:31:16;8.00;99.90
18450;DHT22;9354;50.194;7.690;2023-12-28T02:33:50;7.90;99.90
18450;DHT22;9354;50.194;7.690;2023-12-28T02:36:23;7.90;99.90
18450;DHT22;9354;50.194;7.690;2023-12-28T02:38:51;7.90;99.90
18450;DHT22;9354;50.194;7.690;2023-12-28T02:41:23;7.80;99.90
18450;DHT22;9354;50.194;7.690;2023-12-28T02:43:51;7.90;99.90
18450;DHT22;9354;50.194;7.690;2023-12-28T02:46:19;7.90;99.90
18450;DHT22;9354;50.194;7.690;2023-12-28T02:48:46;7.80;99.90
18450;DHT22;9354;50.194;7.690;2023-12-28T02:51:14;7.90;99.90
18450;DHT22;9354;50.194;7.690;2023-12-28T02:53:42;7.90;99.90
18450;DHT22;9354;50.194;7.690;2023-12-28T02:56:09;7.90;99.90
18450;DHT22;9354;50.194;7.690;2023-12-28T02:58:38;7.90;99.90
18450;DHT22;9354;50.194;7.690;2023-12-28T03:01:05;7.90;99.90
18450;DHT22;9354;50.194;7.690;2023-12-28T03:03:33;7.90;99.90
18450;DHT22;9354;50.194;7.690;2023-12-28T03:06:01;7.90;99.90
18450;DHT22;9354;50.194;7.690;2023-12-28T03:08:28;7.90;99.90
18450;DHT22;9354;50.194;7.690;2023-12-28T03:10:55;7.80;99.90
18450;DHT22;9354;50.194;7.690;2023-12-28T03:13:23;7.90;99.90
18450;DHT22;9354;50.194;7.690;2023-12-28T03:15:52;7.90;99.90
18450;DHT22;9354;50.194;7.690;2023-12-28T03:18:19;7.90;99.90
18450;DHT22;9354;50.194;7.690;2023-12-28T03:20:46;7.90;99.90
18450;DHT22;9354;50.194;7.690;2023-12-28T03:23:14;7.90;99.90
18450;DHT22;9354;50.194;7.690;2023-12-28T03:25:41;7.90;99.90
18450;DHT22;9354;50.194;7.690;2023-12-28T03:28:08;7.90;99.90
18450;DHT22;9354;50.194;7.690;2023-12-28T03:30:36;7.90;99.90
18450;DHT22;9354;50.194;7.690;2023-12-28T03:33:05;7.90;99.90
18450;DHT22;9354;50.194;7.690;2023-12-28T03:35:32;7.90;99.90
18450;DHT22;9354;50.194;7.690;2023-12-28T03:38:00;7.90;99.90
18450;DHT22;9354;50.194;7.690;2023-12-28T03:40:27;8.00;99.90
18450;DHT22;9354;50.194;7.690;2023-12-28T03:42:55;8.00;99.90
18450;DHT22;9354;50.194;7.690;2023-12-28T03:45:22;8.00;99.90
18450;DHT22;9354;50.194;7.690;2023-12-28T03:47:49;8.00;99.90
18450;DHT22;9354;50.194;7.690;2023-12-28T03:50:19;8.10;99.90
18450;DHT22;9354;50.194;7.690;2023-12-28T03:52:46;8.10;99.90
18450;DHT22;9354;50.194;7.690;2023-12-28T03:55:13;8.10;99.90
18450;DHT22;9354;50.194;7.690;2023-12-28T03:57:41;8.10;99.90
18450;DHT22;9354;50.194;7.690;2023-12-28T04:00:09;8.10;99.90
18450;DHT22;9354;50.194;7.690;2023-12-28T04:02:36;8.00;99.90
18450;DHT22;9354;50.194;7.690;2023-12-28T04:05:04;8.10;99.90
18450;DHT22;9354;50.194;7.690;2023-12-28T04:07:34;8.10;99.90
18450;DHT22;9354;50.194;7.690;2023-12-28T04:10:02;8.10;99.90
18450;DHT22;9354;50.194;7.690;2023-12-28T04:12:29;8.10;99.90
18450;DHT22;9354;50.194;7.690;2023-12-28T04:14:56;8.10;99.90
18450;DHT22;9354;50.194;7.690;2023-12-28T04:17:24;8.10;99.90
18450;DHT22;9354;50.194;7.690;2023-12-28T04:19:51;8.10;99.90
18450;DHT22;9354;50.194;7.690;2023-12-28T04:22:18;8.20;99.90
18450;DHT22;9354;50.194;7.690;2023-12-28T04:24:47;8.20;99.90
18450;DHT22;9354;50.194;7.690;2023-12-28T04:27:15;8.20;99.90
18450;DHT22;9354;50.194;7.690;2023-12-28T04:29:42;8.30;99.90
18450;DHT22;9354;50.194;7.690;2023-12-28T04:32:10;8.30;99.90
18450;DHT22;9354;50.194;7.690;2023-12-28T04:34:37;8.30;99.90
18450;DHT22;9354;50.194;7.690;2023-12-28T04:37:04;8.40;99.90
18450;DHT22;9354;50.194;7.690;2023-12-28T04:39:32;8.40;99.90
18450;DHT22;9354;50.194;7.690;2023-12-28T04:42:01;8.40;99.90
18450;DHT22;9354;50.194;7.690;2023-12-28T04:44:28;8.40;99.90
18450;DHT22;9354;50.194;7.690;2023-12-28T04:46:56;8.30;99.90
18450;DHT22;9354;50.194;7.690;2023-12-28T04:49:24;8.20;99.90
18450;DHT22;9354;50.194;7.690;2023-12-28T04:51:51;8.10;99.90
18450;DHT22;9354;50.194;7.690;2023-12-28T04:54:19;8.00;99.90
18450;DHT22;9354;50.194;7.690;2023-12-28T04:56:46;8.00;99.90
18450;DHT22;9354;50.194;7.690;2023-12-28T04:59:15;8.00;99.90
18450;DHT22;9354;50.194;7.690;2023-12-28T05:01:42;7.90;99.90
18450;DHT22;9354;50.194;7.690;2023-12-28T05:04:10;7.90;99.90
18450;DHT22;9354;50.194;7.690;2023-12-28T05:06:38;7.90;99.90
18450;DHT22;9354;50.194;7.690;2023-12-28T05:09:05;7.80;99.90
18450;DHT22;9354;50.194;7.690;2023-12-28T05:11:32;7.80;99.90
18450;DHT22;9354;50.194;7.690;2023-12-28T05:14:00;7.80;99.90
18450;DHT22;9354;50.194;7.690;2023-12-28T05:16:29;7.80;99.90
18450;DHT22;9354;50.194;7.690;2023-12-28T05:18:56;7.80;99.90
18450;DHT22;9354;50.194;7.690;2023-12-28T05:21:23;7.80;99.90
18450;DHT22;9354;50.194;7.690;2023-12-28T05:23:51;7.80;99.90
18450;DHT22;9354;50.194;7.690;2023-12-28T05:26:18;7.80;99.90
18450;DHT22;9354;50.194;7.690;2023-12-28T05:28:45;7.80;99.90
18450;DHT22;9354;50.194;7.690;2023-12-28T05:31:13;7.80;99.90
18450;DHT22;9354;50.194;7.690;2023-12-28T05:33:42;7.80;99.90
18450;DHT22;9354;50.194;7.690;2023-12-28T05:36:09;7.80;99.90
18450;DHT22;9354;50.194;7.690;2023-12-28T05:38:36;7.80;99.90
18450;DHT22;9354;50.194;7.690;2023-12-28T05:41:04;7.80;99.90
18450;DHT22;9354;50.194;7.690;2023-12-28T05:43:31;7.80;99.90
18450;DHT22;9354;50.194;7.690;2023-12-28T05:45:59;7.80;99.90
18450;DHT22;9354;50.194;7.690;2023-12-28T05:48:26;7.80;99.90
18450;DHT22;9354;50.194;7.690;2023-12-28T05:50:56;7.90;99.90
18450;DHT22;9354;50.194;7.690;2023-12-28T05:53:24;7.90;99.90
18450;DHT22;9354;50.194;7.690;2023-12-28T05:55:52;7.90;99.90
18450;DHT22;9354;50.194;7.690;2023-12-28T05:58:20;7.90;99.90
18450;DHT22;9354;50.194;7.690;2023-12-28T06:00:47;7.90;99.90
18450;DHT22;9354;50.194;7.690;2023-12-28T06:03:15;7.90;99.90
18450;DHT22;9354;50.194;7.690;2023-12-28T06:05:42;7.90;99.90
18450;DHT22;9354;50.194;7.690;2023-12-28T06:08:11;7.90;99.90
18450;DHT22;9354;50.194;7.690;2023-12-28T06:10:39;7.90;99.90
18450;DHT22;9354;50.194;7.690;2023-12-28T06:13:06;7.90;99.90
18450;DHT22;9354;50.194;7.690;2023-12-28T06:15:33;7.90;99.90
18450;DHT22;9354;50.194;7.690;2023-12-28T06:18:01;7.90;99.90
18450;DHT22;9354;50.194;7.690;2023-12-28T06:20:30;7.90;99.90
18450;DHT22;9354;50.194;7.690;2023-12-28T06:22:57;7.90;99.90
18450;DHT22;9354;50.194;7.690;2023-12-28T06:25:26;8.00;99.90
18450;DHT22;9354;50.194;7.690;2023-12-28T06:27:53;7.90;99.90
18450;DHT22;9354;50.194;7.690;2023-12-28T06:30:21;8.00;99.90
18450;DHT22;9354;50.194;7.690;2023-12-28T06:32:48;8.00;99.90
18450;DHT22;9354;50.194;7.690;2023-12-28T06:35:16;8.00;99.90
18450;DHT22;9354;50.194;7.690;2023-12-28T06:37:43;7.90;99.90
18450;DHT22;9354;50.194;7.690;2023-12-28T06:40:12;7.90;99.90
18450;DHT22;9354;50.194;7.690;2023-12-28T06:42:40;7.90;99.90
18450;DHT22;9354;50.194;7.690;2023-12-28T06:45:09;7.90;99.90
18450;DHT22;9354;50.194;7.690;2023-12-28T06:47:37;7.90;99.90
18450;DHT22;9354;50.194;7.690;2023-12-28T06:50:05;7.90;99.90
18450;DHT22;9354;50.194;7.690;2023-12-28T06:52:33;7.90;99.90
18450;DHT22;9354;50.194;7.690;2023-12-28T06:55:00;7.80;99.90
18450;DHT22;9354;50.194;7.690;2023-12-28T06:57:28;7.80;99.90
18450;DHT22;9354;50.194;7.690;2023-12-28T06:59:57;7.80;99.90
18450;DHT22;9354;50.194;7.690;2023-12-28T07:02:27;7.80;99.90
18450;DHT22;9354;50.194;7.690;2023-12-28T07:04:55;7.80;99.90
18450;DHT22;9354;50.194;7.690;2023-12-28T07:07:22;7.80;99.90
18450;DHT22;9354;50.194;7.690;2023-12-28T07:09:50;7.80;99.90
18450;DHT22;9354;50.194;7.690;2023-12-28T07:12:17;7.80;99.90
18450;DHT22;9354;50.194;7.690;2023-12-28T07:14:46;7.80;99.90
18450;DHT22;9354;50.194;7.690;2023-12-28T07:17:15;7.80;99.90
18450;DHT22;9354;50.194;7.690;2023-12-28T07:19:43;7.80;99.90
18450;DHT22;9354;50.194;7.690;2023-12-28T07:22:10;7.70;99.90
18450;DHT22;9354;50.194;7.690;2023-12-28T07:24:38;7.70;99.90
18450;DHT22;9354;50.194;7.690;2023-12-28T07:27:05;7.70;99.90
18450;DHT22;9354;50.194;7.690;2023-12-28T07:29:33;7.70;99.90
18450;DHT22;9354;50.194;7.690;2023-12-28T07:32:01;7.70;99.90
18450;DHT22;9354;50.194;7.690;2023-12-28T07:34:29;7.70;99.90
18450;DHT22;9354;50.194;7.690;2023-12-28T07:36:57;7.70;99.90
18450;DHT22;9354;50.194;7.690;2023-12-28T07:39:24;7.70;99.90
18450;DHT22;9354;50.194;7.690;2023-12-28T07:41:51;7.70;99.90
18450;DHT22;9354;50.194;7.690;2023-12-28T07:44:19;7.70;99.90
18450;DHT22;9354;50.194;7.690;2023-12-28T07:46:46;7.70;99.90
18450;DHT22;9354;50.194;7.690;2023-12-28T07:49:14;7.70;99.90
18450;DHT22;9354;50.194;7.690;2023-12-28T07:51:42;7.70;99.90
18450;DHT22;9354;50.194;7.690;2023-12-28T07:54:10;7.70;99.90
18450;DHT22;9354;50.194;7.690;2023-12-28T07:56:37;7.70;99.90
18450;DHT22;9354;50.194;7.690;2023-12-28T07:59:05;7.70;99.90
18450;DHT22;9354;50.194;7.690;2023-12-28T08:01:35;7.70;99.90
18450;DHT22;9354;50.194;7.690;2023-12-28T08:04:02;7.70;99.90
18450;DHT22;9354;50.194;7.690;2023-12-28T08:06:30;7.70;99.90
18450;DHT22;9354;50.194;7.690;2023-12-28T08:08:59;7.70;99.90
18450;DHT22;9354;50.194;7.690;2023-12-28T08:11:27;7.80;99.90
18450;DHT22;9354;50.194;7.690;2023-12-28T08:13:55;7.80;99.90
18450;DHT22;9354;50.194;7.690;2023-12-28T08:16:22;7.80;99.90
18450;DHT22;9354;50.194;7.690;2023-12-28T08:18:49;7.80;99.90
18450;DHT22;9354;50.194;7.690;2023-12-28T08:21:17;7.90;99.90
18450;DHT22;9354;50.194;7.690;2023-12-28T08:23:44;7.90;99.90
18450;DHT22;9354;50.194;7.690;2023-12-28T08:26:13;7.90;99.90
18450;DHT22;9354;50.194;7.690;2023-12-28T08:28:41;7.90;99.90
18450;DHT22;9354;50.194;7.690;2023-12-28T08:31:08;7.90;99.90
18450;DHT22;9354;50.194;7.690;2023-12-28T08:33:36;7.90;99.90
18450;DHT22;9354;50.194;7.690;2023-12-28T08:36:05;7.90;99.90
18450;DHT22;9354;50.194;7.690;2023-12-28T08:38:33;8.00;99.90
18450;DHT22;9354;50.194;7.690;2023-12-28T08:41:00;8.00;99.90
18450;DHT22;9354;50.194;7.690;2023-12-28T08:43:30;8.00;99.90
18450;DHT22;9354;50.194;7.690;2023-12-28T08:45:58;8.10;99.90
18450;DHT22;9354;50.194;7.690;2023-12-28T08:48:25;8.10;99.90
18450;DHT22;9354;50.194;7.690;2023-12-28T08:50:52;8.10;99.90
18450;DHT22;9354;50.194;7.690;2023-12-28T08:53:20;8.20;99.90
18450;DHT22;9354;50.194;7.690;2023-12-28T08:55:47;8.20;99.90
18450;DHT22;9354;50.194;7.690;2023-12-28T08:58:15;8.20;99.90
18450;DHT22;9354;50.194;7.690;2023-12-28T09:00:43;8.20;99.90
18450;DHT22;9354;50.194;7.690;2023-12-28T09:03:12;8.30;99.90
18450;DHT22;9354;50.194;7.690;2023-12-28T09:05:40;8.30;99.90
18450;DHT22;9354;50.194;7.690;2023-12-28T09:08:07;8.30;99.90
18450;DHT22;9354;50.194;7.690;2023-12-28T09:10:35;8.40;99.90
18450;DHT22;9354;50.194;7.690;2023-12-28T09:13:04;8.40;99.90
18450;DHT22;9354;50.194;7.690;2023-12-28T09:15:31;8.40;99.90
18450;DHT22;9354;50.194;7.690;2023-12-28T09:18:00;8.40;99.90
18450;DHT22;9354;50.194;7.690;2023-12-28T09:20:28;8.40;99.90
18450;DHT22;9354;50.194;7.690;2023-12-28T09:22:55;8.40;99.90
18450;DHT22;9354;50.194;7.690;2023-12-28T09:25:22;8.40;99.90
18450;DHT22;9354;50.194;7.690;2023-12-28T09:27:50;8.50;99.90
18450;DHT22;9354;50.194;7.690;2023-12-28T09:30:17;8.60;99.90
18450;DHT22;9354;50.194;7.690;2023-12-28T09:32:45;8.60;99.90
18450;DHT22;9354;50.194;7.690;2023-12-28T09:35:14;8.70;99.90
18450;DHT22;9354;50.194;7.690;2023-12-28T09:37:41;8.70;99.90
18450;DHT22;9354;50.194;7.690;2023-12-28T09:40:09;8.70;99.90
18450;DHT22;9354;50.194;7.690;2023-12-28T09:42:51;8.70;99.90
18450;DHT22;9354;50.194;7.690;2023-12-28T09:45:20;8.80;99.90
18450;DHT22;9354;50.194;7.690;2023-12-28T09:47:48;8.80;99.90
18450;DHT22;9354;50.194;7.690;2023-12-28T09:50:18;8.90;99.90
18450;DHT22;9354;50.194;7.690;2023-12-28T09:52:45;8.90;99.90
18450;DHT22;9354;50.194;7.690;2023-12-28T09:55:13;9.00;99.90
18450;DHT22;9354;50.194;7.690;2023-12-28T09:57:40;9.10;99.90
18450;DHT22;9354;50.194;7.690;2023-12-28T10:00:09;9.10;99.90
18450;DHT22;9354;50.194;7.690;2023-12-28T10:02:39;9.20;99.90
18450;DHT22;9354;50.194;7.690;2023-12-28T10:05:07;9.20;99.90
18450;DHT22;9354;50.194;7.690;2023-12-28T10:07:42;9.20;99.90
18450;DHT22;9354;50.194;7.690;2023-12-28T10:10:09;9.30;99.90
18450;DHT22;9354;50.194;7.690;2023-12-28T10:12:37;9.30;99.90
18450;DHT22;9354;50.194;7.690;2023-12-28T10:15:06;9.30;99.90
18450;DHT22;9354;50.194;7.690;2023-12-28T10:17:33;9.40;99.90
18450;DHT22;9354;50.194;7.690;2023-12-28T10:20:01;9.40;99.90
18450;DHT22;9354;50.194;7.690;2023-12-28T10:22:31;9.50;99.90
18450;DHT22;9354;50.194;7.690;2023-12-28T10:25:02;9.50;99.90
18450;DHT22;9354;50.194;7.690;2023-12-28T10:27:30;9.60;99.90
18450;DHT22;9354;50.194;7.690;2023-12-28T10:29:57;9.60;99.90
18450;DHT22;9354;50.194;7.690;2023-12-28T10:32:24;9.70;99.90
18450;DHT22;9354;50.194;7.690;2023-12-28T10:34:52;9.70;99.90
18450;DHT22;9354;50.194;7.690;2023-12-28T10:37:20;9.80;99.90
18450;DHT22;9354;50.194;7.690;2023-12-28T10:39:48;9.80;99.90
18450;DHT22;9354;50.194;7.690;2023-12-28T10:42:26;9.80;99.90
18450;DHT22;9354;50.194;7.690;2023-12-28T10:45:01;9.90;99.90
18450;DHT22;9354;50.194;7.690;2023-12-28T10:47:31;9.90;99.90
18450;DHT22;9354;50.194;7.690;2023-12-28T10:50:03;9.90;99.90
18450;DHT22;9354;50.194;7.690;2023-12-28T10:52:33;9.90;99.90
18450;DHT22;9354;50.194;7.690;2023-12-28T10:55:19;9.90;99.90
18450;DHT22;9354;50.194;7.690;2023-12-28T10:57:59;9.90;99.90
18450;DHT22;9354;50.194;7.690;2023-12-28T11:00:34;9.90;99.90
18450;DHT22;9354;50.194;7.690;2023-12-28T11:03:03;9.90;99.90
18450;DHT22;9354;50.194;7.690;2023-12-28T11:05:33;9.90;99.90
18450;DHT22;9354;50.194;7.690;2023-12-28T11:08:02;9.90;99.90
18450;DHT22;9354;50.194;7.690;2023-12-28T11:10:30;9.90;99.90
18450;DHT22;9354;50.194;7.690;2023-12-28T11:13:01;9.90;99.90
18450;DHT22;9354;50.194;7.690;2023-12-28T11:15:30;9.90;99.90
18450;DHT22;9354;50.194;7.690;2023-12-28T11:17:58;10.00;99.90
18450;DHT22;9354;50.194;7.690;2023-12-28T11:20:25;10.00;99.90
18450;DHT22;9354;50.194;7.690;2023-12-28T11:22:55;10.00;99.90
18450;DHT22;9354;50.194;7.690;2023-12-28T11:25:24;10.10;99.90
18450;DHT22;9354;50.194;7.690;2023-12-28T11:27:57;10.20;99.90
18450;DHT22;9354;50.194;7.690;2023-12-28T11:30:27;10.20;99.90
18450;DHT22;9354;50.194;7.690;2023-12-28T11:32:56;10.20;99.90
18450;DHT22;9354;50.194;7.690;2023-12-28T11:35:24;10.30;99.90
18450;DHT22;9354;50.194;7.690;2023-12-28T11:38:00;10.20;99.90
18450;DHT22;9354;50.194;7.690;2023-12-28T11:40:30;10.20;99.90
18450;DHT22;9354;50.194;7.690;2023-12-28T11:42:57;10.30;99.90
18450;DHT22;9354;50.194;7.690;2023-12-28T11:45:24;10.30;99.90
18450;DHT22;9354;50.194;7.690;2023-12-28T11:48:03;10.40;99.90
18450;DHT22;9354;50.194;7.690;2023-12-28T11:50:31;10.50;99.90
18450;DHT22;9354;50.194;7.690;2023-12-28T11:52:58;10.60;99.90
18450;DHT22;9354;50.194;7.690;2023-12-28T11:55:25;10.90;99.90
18450;DHT22;9354;50.194;7.690;2023-12-28T11:57:53;11.20;99.90
18450;DHT22;9354;50.194;7.690;2023-12-28T12:00:20;11.40;99.90
18450;DHT22;9354;50.194;7.690;2023-12-28T12:02:51;11.50;99.90
18450;DHT22;9354;50.194;7.690;2023-12-28T12:05:20;11.70;99.90
18450;DHT22;9354;50.194;7.690;2023-12-28T12:07:49;12.00;99.90
18450;DHT22;9354;50.194;7.690;2023-12-28T12:10:16;12.20;99.90
18450;DHT22;9354;50.194;7.690;2023-12-28T12:12:44;12.40;99.90
18450;DHT22;9354;50.194;7.690;2023-12-28T12:15:11;12.70;99.90
18450;DHT22;9354;50.194;7.690;2023-12-28T12:17:39;12.80;99.90
18450;DHT22;9354;50.194;7.690;2023-12-28T12:20:08;12.80;99.90
18450;DHT22;9354;50.194;7.690;2023-12-28T12:22:37;12.90;99.90
18450;DHT22;9354;50.194;7.690;2023-12-28T12:25:06;12.80;99.90
18450;DHT22;9354;50.194;7.690;2023-12-28T12:27:36;12.80;99.90
18450;DHT22;9354;50.194;7.690;2023-12-28T12:30:03;12.90;99.90
18450;DHT22;9354;50.194;7.690;2023-12-28T12:32:31;12.90;99.90
18450;DHT22;9354;50.194;7.690;2023-12-28T12:34:59;13.00;99.90
18450;DHT22;9354;50.194;7.690;2023-12-28T12:37:26;13.10;99.90
18450;DHT22;9354;50.194;7.690;2023-12-28T12:39:55;13.00;99.90
18450;DHT22;9354;50.194;7.690;2023-12-28T12:42:22;12.90;99.90
18450;DHT22;9354;50.194;7.690;2023-12-28T12:44:50;12.80;99.90
18450;DHT22;9354;50.194;7.690;2023-12-28T12:47:17;12.70;99.90
18450;DHT22;9354;50.194;7.690;2023-12-28T12:49:45;12.70;99.90
18450;DHT22;9354;50.194;7.690;2023-12-28T12:52:12;12.60;99.90
18450;DHT22;9354;50.194;7.690;2023-12-28T12:54:40;12.60;99.90
18450;DHT22;9354;50.194;7.690;2023-12-28T12:57:09;12.60;99.90
18450;DHT22;9354;50.194;7.690;2023-12-28T12:59:36;12.60;99.90
18450;DHT22;9354;50.194;7.690;2023-12-28T13:02:07;12.60;99.90
18450;DHT22;9354;50.194;7.690;2023-12-28T13:04:34;12.60;99.90
18450;DHT22;9354;50.194;7.690;2023-12-28T13:07:02;12.50;99.90
18450;DHT22;9354;50.194;7.690;2023-12-28T13:09:29;12.50;99.90
18450;DHT22;9354;50.194;7.690;2023-12-28T13:11:57;12.40;99.90
18450;DHT22;9354;50.194;7.690;2023-12-28T13:14:26;12.50;99.90
18450;DHT22;9354;50.194;7.690;2023-12-28T13:16:53;12.50;99.90
18450;DHT22;9354;50.194;7.690;2023-12-28T13:19:21;12.50;99.90
18450;DHT22;9354;50.194;7.690;2023-12-28T13:21:48;12.60;99.90
18450;DHT22;9354;50.194;7.690;2023-12-28T13:24:16;12.60;99.90
18450;DHT22;9354;50.194;7.690;2023-12-28T13:26:43;12.50;99.90
18450;DHT22;9354;50.194;7.690;2023-12-28T13:29:11;12.50;99.90
18450;DHT22;9354;50.194;7.690;2023-12-28T13:31:40;12.40;99.90
18450;DHT22;9354;50.194;7.690;2023-12-28T13:34:08;12.30;99.90
18450;DHT22;9354;50.194;7.690;2023-12-28T13:36:36;12.30;99.90
18450;DHT22;9354;50.194;7.690;2023-12-28T13:39:03;12.30;99.90
18450;DHT22;9354;50.194;7.690;2023-12-28T13:41:31;12.30;99.90
18450;DHT22;9354;50.194;7.690;2023-12-28T13:43:58;12.20;99.90
18450;DHT22;9354;50.194;7.690;2023-12-28T13:46:31;12.20;99.90
18450;DHT22;9354;50.194;7.690;2023-12-28T13:49:00;12.10;99.90
18450;DHT22;9354;50.194;7.690;2023-12-28T13:51:28;12.00;99.90
18450;DHT22;9354;50.194;7.690;2023-12-28T13:53:55;11.90;99.90
18450;DHT22;9354;50.194;7.690;2023-12-28T13:56:23;11.80;99.90
18450;DHT22;9354;50.194;7.690;2023-12-28T13:58:50;11.70;99.90
18450;DHT22;9354;50.194;7.690;2023-12-28T14:01:17;11.60;99.90
18450;DHT22;9354;50.194;7.690;2023-12-28T14:03:45;11.50;99.90
18450;DHT22;9354;50.194;7.690;2023-12-28T14:06:16;11.40;99.90
18450;DHT22;9354;50.194;7.690;2023-12-28T14:08:43;11.40;99.90
18450;DHT22;9354;50.194;7.690;2023-12-28T14:11:11;11.30;99.90
18450;DHT22;9354;50.194;7.690;2023-12-28T14:13:38;11.30;99.90
18450;DHT22;9354;50.194;7.690;2023-12-28T14:16:06;11.20;99.90
18450;DHT22;9354;50.194;7.690;2023-12-28T14:18:34;11.20;99.90
18450;DHT22;9354;50.194;7.690;2023-12-28T14:21:02;11.20;99.90
18450;DHT22;9354;50.194;7.690;2023-12-28T14:23:31;11.20;99.90
18450;DHT22;9354;50.194;7.690;2023-12-28T14:25:59;11.10;99.90
18450;DHT22;9354;50.194;7.690;2023-12-28T14:28:26;11.10;99.90
18450;DHT22;9354;50.194;7.690;2023-12-28T14:30:58;11.00;99.90
18450;DHT22;9354;50.194;7.690;2023-12-28T14:33:26;10.90;99.90
18450;DHT22;9354;50.194;7.690;2023-12-28T14:35:54;10.90;99.90
18450;DHT22;9354;50.194;7.690;2023-12-28T14:38:21;10.80;99.90
18450;DHT22;9354;50.194;7.690;2023-12-28T14:40:51;10.70;99.90
18450;DHT22;9354;50.194;7.690;2023-12-28T14:43:19;10.70;99.90
18450;DHT22;9354;50.194;7.690;2023-12-28T14:45:47;10.60;99.90
18450;DHT22;9354;50.194;7.690;2023-12-28T14:48:14;10.60;99.90
18450;DHT22;9354;50.194;7.690;2023-12-28T14:50:41;10.60;99.90
18450;DHT22;9354;50.194;7.690;2023-12-28T14:53:09;10.60;99.90
18450;DHT22;9354;50.194;7.690;2023-12-28T14:55:36;10.60;99.90
18450;DHT22;9354;50.194;7.690;2023-12-28T14:58:05;10.50;99.90
18450;DHT22;9354;50.194;7.690;2023-12-28T15:00:32;10.50;99.90
18450;DHT22;9354;50.194;7.690;2023-12-28T15:03:01;10.50;99.90
18450;DHT22;9354;50.194;7.690;2023-12-28T15:05:28;10.40;99.90
18450;DHT22;9354;50.194;7.690;2023-12-28T15:07:56;10.40;99.90
18450;DHT22;9354;50.194;7.690;2023-12-28T15:10:23;10.30;99.90
18450;DHT22;9354;50.194;7.690;2023-12-28T15:12:51;10.20;99.90
18450;DHT22;9354;50.194;7.690;2023-12-28T15:15:21;10.20;99.90
18450;DHT22;9354;50.194;7.690;2023-12-28T15:17:49;10.10;99.90
18450;DHT22;9354;50.194;7.690;2023-12-28T15:20:17;10.20;99.90
18450;DHT22;9354;50.194;7.690;2023-12-28T15:22:45;10.10;99.90
18450;DHT22;9354;50.194;7.690;2023-12-28T15:25:13;10.10;99.90
18450;DHT22;9354;50.194;7.690;2023-12-28T15:27:41;10.10;99.90
18450;DHT22;9354;50.194;7.690;2023-12-28T15:30:09;10.00;99.90
18450;DHT22;9354;50.194;7.690;2023-12-28T15:32:39;10.00;99.90
18450;DHT22;9354;50.194;7.690;2023-12-28T15:35:11;10.00;99.90
18450;DHT22;9354;50.194;7.690;2023-12-28T15:37:39;10.00;99.90
18450;DHT22;9354;50.194;7.690;2023-12-28T15:40:07;10.00;99.90
18450;DHT22;9354;50.194;7.690;2023-12-28T15:42:35;10.00;99.90
18450;DHT22;9354;50.194;7.690;2023-12-28T15:45:03;10.00;99.90
18450;DHT22;9354;50.194;7.690;2023-12-28T15:47:30;9.90;99.90
18450;DHT22;9354;50.194;7.690;2023-12-28T15:50:00;9.90;99.90
18450;DHT22;9354;50.194;7.690;2023-12-28T15:52:28;9.90;99.90
18450;DHT22;9354;50.194;7.690;2023-12-28T15:54:55;9.90;99.90
18450;DHT22;9354;50.194;7.690;2023-12-28T15:57:23;9.90;99.90
18450;DHT22;9354;50.194;7.690;2023-12-28T15:59:50;9.90;99.90
18450;DHT22;9354;50.194;7.690;2023-12-28T16:02:24;9.80;99.90